Time;durP1;ratioP1;P1;durP2;ratioP2;P2;SDS_P1;SDS_P2;PMS_P1;PMS_P2;Temp;Humidity;BMP_temperature;BMP_pressure;BME280_temperature;BME280_humidity;BME280_pressure;Samples;Min_cycle;Max_cycle;Signal;HPM_P1;HPM_P2
2023/01/11 00:00:24;;;;;;;7.10;4.93;;;8.80;99.90;;;;;;4844289;29;20064;-91
2023/01/11 00:02:57;;;;;;;5.95;4.18;;;8.90;99.90;;;;;;4844419;29;20056;-90
2023/01/11 00:05:23;;;;;;;8.85;4.35;;;8.90;99.90;;;;;;4843942;29;20498;-91
2023/01/11 00:07:49;;;;;;;7.43;4.93;;;8.90;99.90;;;;;;4862188;29;20038;-91
2023/01/11 00:10:15;;;;;;;5.82;4.40;;;8.90;99.90;;;;;;4847326;29;20045;-91
2023/01/11 00:12:40;;;;;;;7.40;4.90;;;8.90;99.90;;;;;;4847159;29;20049;-90
2023/01/11 00:15:06;;;;;;;6.63;4.47;;;9.00;99.90;;;;;;4847376;29;20352;-91
2023/01/11 00:17:32;;;;;;;6.18;3.97;;;9.00;99.90;;;;;;4864219;29;20046;-91
2023/01/11 00:19:58;;;;;;;5.53;4.00;;;9.00;99.90;;;;;;4872623;29;20508;-91
2023/01/11 00:22:23;;;;;;;5.45;3.55;;;9.00;99.90;;;;;;4899365;29;20052;-92
2023/01/11 00:24:49;;;;;;;6.63;4.30;;;9.00;99.90;;;;;;4870857;29;20568;-91
2023/01/11 00:27:15;;;;;;;5.97;4.15;;;9.10;99.90;;;;;;4874017;29;20414;-91
2023/01/11 00:29:41;;;;;;;6.10;4.05;;;9.10;99.90;;;;;;4896528;29;20048;-90
2023/01/11 00:32:06;;;;;;;7.45;4.13;;;9.10;99.90;;;;;;4881419;29;20080;-91
2023/01/11 00:34:32;;;;;;;5.45;4.00;;;9.20;99.90;;;;;;4880031;29;20131;-90
2023/01/11 00:36:58;;;;;;;5.70;3.65;;;9.10;99.90;;;;;;4901169;29;20051;-91
2023/01/11 00:39:23;;;;;;;6.78;3.90;;;9.10;99.90;;;;;;4899506;29;20044;-90
2023/01/11 00:50:02;;;;;;;6.78;3.90;;;9.20;99.90;;;;;;4895297;29;20076;-92
2023/01/11 00:52:27;;;;;;;5.93;3.80;;;9.20;99.90;;;;;;4883610;29;20071;-89
2023/01/11 00:54:53;;;;;;;5.55;3.42;;;9.20;99.90;;;;;;4898684;29;20109;-92
2023/01/11 00:57:19;;;;;;;5.90;3.67;;;9.30;99.90;;;;;;4867799;29;20081;-90
2023/01/11 00:59:44;;;;;;;9.00;4.30;;;9.30;99.90;;;;;;4865431;29;20052;-91
2023/01/11 01:02:11;;;;;;;6.05;4.50;;;9.30;99.90;;;;;;4870332;29;20048;-91
2023/01/11 01:04:37;;;;;;;6.43;4.40;;;9.30;99.90;;;;;;4878617;29;20097;-90
2023/01/11 01:07:04;;;;;;;5.85;3.60;;;9.40;99.90;;;;;;4900072;29;20474;-92
2023/01/11 01:09:30;;;;;;;6.60;3.67;;;9.40;99.90;;;;;;4886330;29;20141;-90
2023/01/11 01:11:56;;;;;;;7.07;4.13;;;9.40;99.90;;;;;;4876946;29;20052;-91
2023/01/11 01:14:25;;;;;;;8.95;4.13;;;9.40;99.90;;;;;;4866298;29;20057;-90
2023/01/11 01:16:51;;;;;;;6.10;4.20;;;9.40;99.90;;;;;;4864998;29;20041;-91
2023/01/11 01:19:17;;;;;;;5.60;3.70;;;9.40;99.90;;;;;;4899683;29;20060;-91
2023/01/11 01:21:43;;;;;;;6.78;3.65;;;9.50;99.90;;;;;;4899849;29;20135;-91
2023/01/11 01:24:09;;;;;;;5.85;4.10;;;9.50;99.90;;;;;;4899458;29;20041;-91
2023/01/11 01:26:35;;;;;;;5.82;3.65;;;9.50;99.90;;;;;;4883470;29;20044;-91
2023/01/11 01:29:00;;;;;;;5.78;3.53;;;9.50;99.90;;;;;;4883445;29;20036;-91
2023/01/11 01:31:26;;;;;;;5.80;3.90;;;9.50;99.90;;;;;;4899454;29;20075;-91
2023/01/11 01:33:51;;;;;;;5.97;3.97;;;9.50;99.90;;;;;;4868930;29;20563;-90
2023/01/11 01:36:17;;;;;;;5.43;3.47;;;9.60;99.90;;;;;;4898226;29;20043;-91
2023/01/11 01:38:43;;;;;;;7.13;3.97;;;9.60;99.90;;;;;;4870591;29;20049;-91
2023/01/11 01:41:11;;;;;;;4.93;3.50;;;9.60;99.90;;;;;;4866743;29;20407;-91
2023/01/11 01:43:55;;;;;;;5.95;3.70;;;9.60;99.90;;;;;;4869505;29;20510;-90
2023/01/11 01:46:25;;;;;;;5.85;3.75;;;9.60;99.90;;;;;;4889738;29;20044;-92
2023/01/11 01:48:57;;;;;;;4.63;3.10;;;9.70;99.90;;;;;;4875204;29;20037;-91
2023/01/11 01:51:32;;;;;;;4.32;2.50;;;9.70;99.90;;;;;;4874847;29;20059;-91
2023/01/11 01:54:03;;;;;;;5.70;2.88;;;9.70;99.90;;;;;;4884203;29;20096;-91
2023/01/11 01:56:40;;;;;;;4.65;2.92;;;9.70;99.90;;;;;;4867081;29;20045;-91
2023/01/11 01:59:11;;;;;;;4.75;2.90;;;9.70;99.90;;;;;;4880118;29;20041;-90
2023/01/11 02:01:47;;;;;;;5.60;2.97;;;9.70;99.90;;;;;;4876132;29;20041;-90
2023/01/11 02:04:37;;;;;;;4.82;2.90;;;9.80;99.90;;;;;;4898653;29;20056;-88
2023/01/11 02:07:12;;;;;;;4.97;2.88;;;9.80;99.90;;;;;;4879558;29;20055;-90
2023/01/11 02:09:47;;;;;;;4.97;3.33;;;9.80;99.90;;;;;;4886175;29;20496;-91
2023/01/11 02:12:15;;;;;;;6.30;3.35;;;9.80;99.90;;;;;;4889778;29;20119;-91
2023/01/11 02:14:42;;;;;;;4.85;3.20;;;9.80;99.90;;;;;;4867676;29;20044;-91
2023/01/11 02:17:08;;;;;;;5.72;3.47;;;9.80;99.90;;;;;;4897281;29;20277;-92
2023/01/11 02:19:56;;;;;;;5.38;2.92;;;9.90;99.90;;;;;;4884372;29;20057;-92
2023/01/11 02:22:30;;;;;;;4.50;3.05;;;9.90;99.90;;;;;;4880415;29;20057;-92
2023/01/11 02:24:59;;;;;;;5.97;3.10;;;9.90;99.90;;;;;;4874280;29;20113;-92
2023/01/11 02:27:59;;;;;;;3.90;2.55;;;9.90;99.90;;;;;;4898816;29;20051;-91
2023/01/11 02:30:30;;;;;;;4.68;2.63;;;9.90;99.90;;;;;;4882625;29;20051;-91
2023/01/11 02:33:11;;;;;;;5.63;2.50;;;10.00;99.90;;;;;;4877718;29;20052;-89
2023/01/11 02:36:07;;;;;;;3.92;2.28;;;10.00;99.90;;;;;;4881514;29;20375;-91
2023/01/11 02:38:48;;;;;;;4.35;2.20;;;10.00;99.90;;;;;;4878004;29;20072;-91
2023/01/11 02:41:20;;;;;;;3.88;1.90;;;10.00;99.90;;;;;;4888703;29;20053;-90
2023/01/11 02:46:55;;;;;;;4.90;2.40;;;10.00;99.90;;;;;;4875846;29;20060;-91
2023/01/11 02:49:40;;;;;;;4.35;2.65;;;10.10;99.90;;;;;;4896719;29;20036;-91
2023/01/11 02:52:33;;;;;;;6.05;2.58;;;10.00;99.90;;;;;;4869911;29;20048;-91
2023/01/11 02:55:02;;;;;;;4.43;2.73;;;10.10;99.90;;;;;;4881663;29;20486;-90
2023/01/11 02:57:29;;;;;;;4.65;2.53;;;10.10;99.90;;;;;;4880010;29;20056;-90
2023/01/11 02:59:56;;;;;;;5.13;2.50;;;10.10;99.90;;;;;;4875344;29;20051;-91
2023/01/11 03:02:23;;;;;;;4.60;2.40;;;10.10;99.90;;;;;;4889118;29;20390;-91
2023/01/11 03:04:48;;;;;;;3.97;2.42;;;10.10;99.90;;;;;;4876913;29;20100;-91
2023/01/11 03:07:48;;;;;;;4.00;2.15;;;10.10;99.90;;;;;;4863079;29;20479;-91
2023/01/11 03:10:40;;;;;;;4.05;2.00;;;10.10;99.90;;;;;;4876439;29;20063;-91
2023/01/11 03:13:06;;;;;;;4.07;1.90;;;10.10;99.90;;;;;;4898666;29;20052;-91
2023/01/11 03:15:52;;;;;;;4.10;1.95;;;10.20;99.90;;;;;;4881608;29;20138;-91
2023/01/11 03:18:18;;;;;;;5.32;2.08;;;10.20;99.90;;;;;;4881962;29;20597;-89
2023/01/11 03:20:53;;;;;;;3.78;1.90;;;10.20;99.90;;;;;;4881626;29;20079;-92
2023/01/11 03:23:52;;;;;;;3.47;1.65;;;10.20;99.90;;;;;;4881158;29;20052;-93
2023/01/11 03:26:57;;;;;;;3.63;1.55;;;10.20;99.90;;;;;;4898112;29;20572;-94
2023/01/11 03:29:32;;;;;;;3.50;1.50;;;10.30;99.90;;;;;;4878458;29;20142;-91
2023/01/11 03:32:16;;;;;;;4.65;1.70;;;10.30;99.90;;;;;;4898197;29;20041;-92
2023/01/11 03:34:51;;;;;;;3.72;1.40;;;10.30;99.90;;;;;;4886144;29;20049;-93
2023/01/11 03:37:25;;;;;;;4.78;1.30;;;10.30;99.90;;;;;;4881253;29;20056;-92
2023/01/11 03:40:19;;;;;;;2.28;1.25;;;10.30;99.90;;;;;;4881784;29;20036;-92
2023/01/11 03:45:40;;;;;;;2.13;0.90;;;10.40;99.90;;;;;;4885508;29;20060;-92
2023/01/11 03:48:11;;;;;;;0.70;0.50;;;10.40;99.90;;;;;;4885035;29;20068;-93
2023/01/11 03:50:39;;;;;;;1.20;0.60;;;10.40;99.90;;;;;;4899835;29;20036;-92
2023/01/11 03:53:07;;;;;;;0.73;0.60;;;10.40;99.90;;;;;;4883219;29;20529;-92
2023/01/11 03:55:39;;;;;;;1.92;0.70;;;10.50;99.90;;;;;;4866646;29;20041;-92
2023/01/11 03:58:07;;;;;;;1.63;0.40;;;10.50;99.90;;;;;;4880294;29;20131;-91
2023/01/11 04:00:35;;;;;;;1.63;0.50;;;10.50;99.90;;;;;;4876060;29;20512;-91
2023/01/11 04:03:01;;;;;;;2.45;0.80;;;10.50;99.90;;;;;;4897036;29;20132;-90
2023/01/11 04:05:27;;;;;;;4.75;0.80;;;10.60;99.90;;;;;;4901177;29;20631;-92
2023/01/11 04:07:53;;;;;;;1.83;0.80;;;10.50;99.90;;;;;;4901786;29;20084;-91
2023/01/11 04:10:19;;;;;;;3.00;0.80;;;10.60;99.90;;;;;;4884492;29;20036;-91
2023/01/11 04:12:48;;;;;;;5.68;1.13;;;10.60;99.90;;;;;;4901020;29;20482;-91
2023/01/11 04:15:15;;;;;;;4.30;1.05;;;10.60;99.90;;;;;;4896518;29;20052;-92
2023/01/11 04:17:41;;;;;;;4.00;0.90;;;10.60;99.90;;;;;;4882792;29;20482;-91
2023/01/11 04:20:10;;;;;;;5.80;1.27;;;10.60;99.90;;;;;;4884004;29;20064;-91
2023/01/11 04:22:36;;;;;;;7.43;2.05;;;10.60;99.90;;;;;;4884346;29;20037;-91
2023/01/11 04:25:03;;;;;;;10.10;1.95;;;10.60;99.90;;;;;;4865811;29;20045;-91
2023/01/11 04:27:28;;;;;;;7.25;2.10;;;10.70;99.90;;;;;;4891008;29;20048;-92
2023/01/11 04:29:54;;;;;;;8.48;2.33;;;10.70;99.90;;;;;;4883856;29;20075;-92
2023/01/11 04:32:20;;;;;;;9.48;2.83;;;10.70;99.90;;;;;;4872297;29;20048;-91
2023/01/11 04:34:45;;;;;;;17.85;3.13;;;10.70;99.90;;;;;;4915356;29;20386;-91
2023/01/11 04:37:11;;;;;;;18.70;3.20;;;10.70;99.90;;;;;;4883599;29;20129;-92
2023/01/11 04:39:37;;;;;;;18.40;3.25;;;10.80;99.90;;;;;;4879904;29;20056;-92
2023/01/11 04:42:18;;;;;;;18.50;3.40;;;10.80;99.90;;;;;;4884889;29;20048;-91
2023/01/11 04:44:46;;;;;;;20.33;2.92;;;10.80;99.90;;;;;;4866017;29;20049;-91
2023/01/11 04:47:12;;;;;;;19.92;3.33;;;10.80;99.90;;;;;;4887696;29;20049;-91
2023/01/11 04:49:38;;;;;;;19.67;2.95;;;10.80;99.90;;;;;;4884473;29;20490;-92
2023/01/11 04:52:04;;;;;;;24.73;3.53;;;10.80;99.90;;;;;;4882370;29;20049;-91
2023/01/11 04:54:29;;;;;;;25.98;3.72;;;10.80;99.90;;;;;;4881907;29;20394;-91
2023/01/11 04:56:56;;;;;;;23.48;3.63;;;10.90;99.90;;;;;;4883567;29;20052;-91
2023/01/11 04:59:22;;;;;;;26.95;3.70;;;10.90;99.90;;;;;;4883884;29;20052;-91
2023/01/11 05:01:47;;;;;;;20.15;3.90;;;10.80;99.90;;;;;;4883356;29;20120;-92
2023/01/11 05:04:13;;;;;;;22.02;3.70;;;10.90;99.90;;;;;;4882849;29;20489;-91
2023/01/11 05:06:38;;;;;;;15.88;3.50;;;10.90;99.90;;;;;;4905139;29;20043;-91
2023/01/11 05:09:04;;;;;;;25.08;3.60;;;10.90;99.90;;;;;;4871591;29;20064;-89
2023/01/11 05:11:29;;;;;;;25.58;3.33;;;10.80;99.90;;;;;;4899507;29;20051;-91
2023/01/11 05:13:58;;;;;;;25.92;4.10;;;10.90;99.90;;;;;;4883625;29;20607;-91
2023/01/11 05:16:24;;;;;;;24.98;3.63;;;10.90;99.90;;;;;;4899745;29;20557;-89
2023/01/11 05:18:55;;;;;;;24.90;4.38;;;10.90;99.90;;;;;;4874903;29;20045;-91
2023/01/11 05:21:24;;;;;;;25.35;3.47;;;10.90;99.90;;;;;;4882332;29;20044;-90
2023/01/11 05:23:49;;;;;;;31.95;4.18;;;10.90;99.90;;;;;;4882553;29;20147;-91
2023/01/11 05:26:25;;;;;;;23.92;4.03;;;10.90;99.90;;;;;;4885693;29;20083;-91
2023/01/11 05:37:35;;;;;;;26.70;4.15;;;10.80;99.90;;;;;;4736781;27;20125;-89
2023/01/11 05:40:01;;;;;;;28.10;3.72;;;10.80;99.90;;;;;;4863056;29;20045;-89
2023/01/11 05:42:28;;;;;;;27.80;3.92;;;10.80;99.90;;;;;;4864155;29;20049;-92
2023/01/11 05:47:40;;;;;;;28.55;3.95;;;10.80;99.90;;;;;;4866234;29;20045;-89
2023/01/11 05:50:09;;;;;;;31.55;4.18;;;10.70;99.90;;;;;;4846845;29;20053;-90
2023/01/11 05:52:35;;;;;;;28.15;3.72;;;10.70;99.90;;;;;;4863047;29;20041;-89
2023/01/11 05:55:00;;;;;;;28.55;3.90;;;10.80;99.90;;;;;;4864311;29;20076;-89
2023/01/11 05:57:26;;;;;;;33.42;4.03;;;10.70;99.90;;;;;;4845811;29;20077;-90
2023/01/11 05:59:51;;;;;;;27.27;3.50;;;10.80;99.90;;;;;;4845445;29;20045;-91
2023/01/11 06:02:17;;;;;;;29.45;3.95;;;10.70;99.90;;;;;;4857005;29;20041;-92
2023/01/11 06:04:42;;;;;;;29.55;4.35;;;10.70;99.90;;;;;;4845016;29;20057;-91
2023/01/11 06:07:08;;;;;;;28.90;4.03;;;10.70;99.90;;;;;;4850297;29;20045;-91
2023/01/11 06:09:34;;;;;;;32.30;5.15;;;10.70;99.90;;;;;;4855215;29;20053;-91
2023/01/11 06:12:00;;;;;;;35.60;4.00;;;10.80;99.90;;;;;;4858853;29;20044;-91
2023/01/11 06:14:26;;;;;;;30.40;3.97;;;10.70;99.90;;;;;;4879580;29;20048;-91
2023/01/11 06:16:55;;;;;;;29.77;4.25;;;10.80;99.90;;;;;;4872713;29;20046;-90
2023/01/11 06:19:27;;;;;;;27.50;3.65;;;10.70;99.90;;;;;;4861428;29;20061;-91
2023/01/11 06:21:52;;;;;;;25.23;3.85;;;10.70;99.90;;;;;;4857664;29;20045;-90
2023/01/11 06:24:18;;;;;;;29.60;4.07;;;10.70;99.90;;;;;;4867301;29;20040;-90
2023/01/11 06:26:44;;;;;;;28.17;3.60;;;10.70;99.90;;;;;;4872620;29;20041;-89
2023/01/11 06:29:10;;;;;;;29.30;3.63;;;10.70;99.90;;;;;;4882685;29;20049;-91
2023/01/11 06:31:35;;;;;;;24.85;3.72;;;10.70;99.90;;;;;;4870071;29;20120;-89
2023/01/11 06:34:01;;;;;;;25.88;3.30;;;10.70;99.90;;;;;;4861705;29;20507;-89
2023/01/11 06:36:27;;;;;;;29.98;3.50;;;10.60;99.90;;;;;;4843140;29;20119;-89
2023/01/11 06:38:52;;;;;;;22.45;3.15;;;10.60;99.90;;;;;;4829627;29;20126;-91
2023/01/11 06:41:18;;;;;;;21.63;3.22;;;10.60;99.90;;;;;;4840226;29;20051;-90
2023/01/11 06:43:45;;;;;;;22.65;3.47;;;10.60;99.90;;;;;;4838282;29;20063;-89
2023/01/11 06:46:14;;;;;;;27.27;3.78;;;10.60;99.90;;;;;;4869444;29;20505;-89
2023/01/11 06:48:40;;;;;;;20.50;3.00;;;10.60;99.90;;;;;;4831817;29;20482;-89
2023/01/11 06:51:06;;;;;;;18.92;2.92;;;10.60;99.90;;;;;;4847337;29;20053;-89
2023/01/11 06:53:34;;;;;;;22.42;3.20;;;10.50;99.90;;;;;;4839515;29;20045;-89
2023/01/11 06:56:02;;;;;;;22.65;3.20;;;10.50;99.90;;;;;;4863713;29;20045;-89
2023/01/11 06:58:28;;;;;;;21.40;3.03;;;10.50;99.90;;;;;;4845206;29;20414;-89
2023/01/11 07:00:56;;;;;;;23.63;3.65;;;10.40;99.90;;;;;;4867393;29;20132;-89
2023/01/11 07:03:25;;;;;;;27.75;3.53;;;10.40;99.90;;;;;;4843597;29;20064;-90
2023/01/11 07:05:52;;;;;;;20.52;3.25;;;10.40;99.90;;;;;;4836878;29;20042;-90
2023/01/11 07:08:18;;;;;;;17.63;2.88;;;10.40;99.90;;;;;;4835475;29;20092;-90
2023/01/11 07:10:49;;;;;;;20.70;3.13;;;10.40;99.90;;;;;;4859936;29;20417;-92
2023/01/11 07:13:21;;;;;;;22.65;3.30;;;10.40;99.90;;;;;;4861046;29;20054;-90
2023/01/11 07:15:49;;;;;;;18.75;3.40;;;10.40;99.90;;;;;;4842132;29;20054;-91
2023/01/11 07:18:16;;;;;;;20.73;2.90;;;10.40;99.90;;;;;;4855846;29;20053;-93
2023/01/11 07:20:42;;;;;;;19.13;4.03;;;10.30;99.90;;;;;;4842694;29;20045;-91
2023/01/11 07:23:08;;;;;;;21.15;3.53;;;10.30;99.90;;;;;;4849084;29;20053;-93
2023/01/11 07:25:34;;;;;;;22.02;3.53;;;10.30;99.90;;;;;;4843109;29;20072;-90
2023/01/11 07:28:02;;;;;;;18.55;3.63;;;10.30;99.90;;;;;;4842536;29;20073;-92
2023/01/11 07:30:30;;;;;;;18.98;3.20;;;10.30;99.90;;;;;;4842830;29;20124;-93
2023/01/11 07:32:58;;;;;;;19.20;3.05;;;10.20;99.90;;;;;;4827236;29;20057;-92
2023/01/11 07:35:27;;;;;;;20.35;3.30;;;10.20;99.90;;;;;;4826276;29;20102;-92
2023/01/11 07:37:52;;;;;;;26.63;3.90;;;10.20;99.90;;;;;;4840105;29;20057;-92
2023/01/11 07:40:18;;;;;;;22.58;2.85;;;10.20;99.90;;;;;;4844966;29;20074;-92
2023/01/11 07:43:10;;;;;;;25.80;3.22;;;10.10;99.90;;;;;;4860362;29;20538;-91
2023/01/11 07:45:38;;;;;;;20.30;3.08;;;10.10;99.90;;;;;;4844702;29;20052;-92
2023/01/11 07:48:06;;;;;;;23.13;3.55;;;10.10;99.90;;;;;;4861659;29;20089;-94
2023/01/11 07:50:32;;;;;;;25.13;3.30;;;10.10;99.90;;;;;;4844786;29;20049;-93
2023/01/11 07:53:00;;;;;;;25.73;3.80;;;10.10;99.90;;;;;;4845439;29;20371;-92
2023/01/11 07:55:26;;;;;;;19.63;3.00;;;10.10;99.90;;;;;;4844930;29;20518;-92
2023/01/11 07:57:55;;;;;;;24.95;3.50;;;10.10;99.90;;;;;;4844644;29;20073;-92
2023/01/11 08:00:22;;;;;;;20.80;2.85;;;10.10;99.90;;;;;;4844840;29;20118;-93
2023/01/11 08:02:52;;;;;;;18.92;2.95;;;10.10;99.90;;;;;;4844972;29;20088;-92
2023/01/11 08:05:18;;;;;;;16.23;2.45;;;10.10;99.90;;;;;;4844662;29;20057;-93
2023/01/11 08:07:44;;;;;;;13.45;2.22;;;10.10;99.90;;;;;;4844769;29;20054;-94
2023/01/11 08:10:10;;;;;;;17.52;2.72;;;10.00;99.90;;;;;;4844300;29;20049;-94
2023/01/11 08:15:32;;;;;;;14.98;2.38;;;10.00;99.90;;;;;;4875670;29;20053;-94
2023/01/11 08:17:58;;;;;;;11.73;1.90;;;9.90;99.90;;;;;;4845240;29;20049;-94
2023/01/11 08:20:25;;;;;;;9.40;1.80;;;9.90;99.90;;;;;;4844543;29;20057;-95
2023/01/11 08:22:52;;;;;;;12.70;2.17;;;9.80;99.90;;;;;;4844942;29;20105;-95
2023/01/11 08:25:18;;;;;;;13.32;2.25;;;9.80;99.90;;;;;;4845118;29;20479;-95
2023/01/11 08:27:43;;;;;;;13.38;2.40;;;9.80;99.90;;;;;;4845830;29;20097;-94
2023/01/11 08:30:10;;;;;;;11.23;1.80;;;9.70;99.90;;;;;;4850575;29;20080;-95
2023/01/11 08:32:36;;;;;;;12.32;1.98;;;9.70;99.90;;;;;;4865000;29;20077;-94
2023/01/11 08:35:02;;;;;;;13.70;2.55;;;9.70;99.90;;;;;;4848791;29;20054;-95
2023/01/11 08:37:27;;;;;;;11.57;1.70;;;9.70;99.90;;;;;;4848101;29;20058;-95
2023/01/11 08:39:55;;;;;;;11.18;1.80;;;9.70;99.90;;;;;;4848383;29;20414;-94
2023/01/11 08:42:21;;;;;;;13.15;1.80;;;9.60;99.90;;;;;;4864645;29;20057;-93
2023/01/11 08:44:47;;;;;;;14.23;2.38;;;9.60;99.90;;;;;;4848422;29;20080;-94
2023/01/11 08:47:12;;;;;;;13.68;1.70;;;9.60;99.90;;;;;;4863743;29;20045;-93
2023/01/11 08:49:41;;;;;;;11.60;2.03;;;9.60;99.90;;;;;;4864437;29;20113;-93
2023/01/11 08:52:11;;;;;;;12.52;1.58;;;9.60;99.90;;;;;;4847874;29;20495;-94
2023/01/11 08:54:37;;;;;;;12.77;2.17;;;9.60;99.90;;;;;;4848294;29;20057;-94
2023/01/11 08:57:03;;;;;;;14.18;2.08;;;9.60;99.90;;;;;;4847984;29;20121;-93
2023/01/11 08:59:28;;;;;;;13.18;1.95;;;9.50;99.90;;;;;;4847663;29;20057;-94
2023/01/11 09:01:54;;;;;;;12.07;2.03;;;9.50;99.90;;;;;;4863561;29;20144;-94
2023/01/11 09:04:20;;;;;;;9.52;1.77;;;9.50;99.90;;;;;;4846313;29;20478;-93
2023/01/11 09:06:45;;;;;;;11.07;2.22;;;9.50;99.90;;;;;;4860665;29;20048;-95
2023/01/11 09:09:11;;;;;;;6.47;1.42;;;9.50;99.90;;;;;;4847852;29;20491;-95
2023/01/11 09:14:23;;;;;;;11.35;1.63;;;9.50;99.90;;;;;;4874131;29;20041;-95
2023/01/11 09:16:53;;;;;;;9.93;2.20;;;9.50;99.90;;;;;;4855792;29;20049;-94
2023/01/11 09:19:19;;;;;;;14.23;2.03;;;9.50;99.90;;;;;;4850089;29;20048;-95
2023/01/11 09:21:45;;;;;;;11.02;1.67;;;9.40;99.90;;;;;;4856824;29;20045;-94
2023/01/11 09:24:11;;;;;;;11.65;1.80;;;9.40;99.90;;;;;;4859734;29;20052;-94
2023/01/11 09:26:37;;;;;;;9.38;1.65;;;9.40;99.90;;;;;;4854160;29;20510;-94
2023/01/11 09:29:03;;;;;;;12.68;1.90;;;9.40;99.90;;;;;;4868904;29;20041;-95
2023/01/11 09:31:29;;;;;;;10.13;1.77;;;9.30;99.90;;;;;;4860111;29;20051;-95
2023/01/11 09:33:55;;;;;;;9.27;1.52;;;9.30;99.90;;;;;;4846832;29;20049;-95
2023/01/11 09:36:22;;;;;;;16.85;2.13;;;9.30;99.90;;;;;;4848899;29;20429;-95
2023/01/11 09:38:51;;;;;;;12.10;1.90;;;9.30;99.90;;;;;;4852492;29;20065;-94
2023/01/11 09:41:25;;;;;;;15.48;4.07;;;9.30;99.90;;;;;;4875317;29;20037;-94
2023/01/11 09:44:10;;;;;;;18.10;5.45;;;9.30;99.90;;;;;;4839228;29;20060;-94
2023/01/11 09:46:41;;;;;;;14.27;3.60;;;9.30;99.90;;;;;;4873688;29;20482;-94
2023/01/11 09:49:19;;;;;;;15.60;2.88;;;9.30;99.90;;;;;;4862287;29;20042;-94
2023/01/11 09:51:46;;;;;;;17.00;2.83;;;9.30;99.90;;;;;;4860088;29;20499;-93
2023/01/11 09:54:24;;;;;;;12.32;2.50;;;9.30;99.90;;;;;;4846648;29;20058;-94
2023/01/11 09:57:09;;;;;;;13.70;2.40;;;9.30;99.90;;;;;;4856980;29;20041;-94
2023/01/11 10:00:03;;;;;;;17.05;2.67;;;9.30;99.90;;;;;;4859751;29;20049;-94
2023/01/11 10:02:47;;;;;;;14.52;2.08;;;9.40;99.90;;;;;;4842829;29;20128;-92
2023/01/11 10:05:57;;;;;;;12.15;1.88;;;9.40;99.90;;;;;;4865749;29;20395;-93
2023/01/11 10:08:50;;;;;;;15.57;2.13;;;9.40;99.90;;;;;;4848641;29;20133;-94
2023/01/11 10:11:52;;;;;;;13.00;2.10;;;9.40;99.90;;;;;;4869251;29;20076;-94
2023/01/11 10:14:49;;;;;;;17.70;2.58;;;9.40;99.90;;;;;;4852016;29;20040;-93
2023/01/11 10:17:33;;;;;;;18.95;2.65;;;9.50;99.90;;;;;;4850267;29;20514;-93
2023/01/11 10:20:11;;;;;;;15.50;2.15;;;9.50;99.90;;;;;;4869511;29;20057;-93
2023/01/11 10:22:43;;;;;;;17.52;2.30;;;9.60;99.90;;;;;;4862545;29;20124;-93
2023/01/11 10:25:14;;;;;;;21.30;2.88;;;9.60;99.90;;;;;;4842900;29;20056;-93
2023/01/11 10:27:59;;;;;;;16.70;2.65;;;9.60;99.90;;;;;;4860927;29;20102;-92
2023/01/11 10:39:06;;;;;;;17.13;3.00;;;9.70;99.90;;;;;;4856140;29;20109;-91
2023/01/11 10:41:37;;;;;;;20.48;3.20;;;9.70;99.90;;;;;;4880944;29;20120;-92
2023/01/11 10:44:17;;;;;;;15.57;3.05;;;9.70;99.90;;;;;;4880950;29;20044;-92
2023/01/11 10:46:47;;;;;;;19.83;2.88;;;9.70;99.90;;;;;;4881032;29;20052;-91
2023/01/11 10:49:37;;;;;;;15.35;3.00;;;9.70;99.90;;;;;;4877166;29;20402;-93
2023/01/11 10:52:29;;;;;;;23.90;3.33;;;9.70;99.90;;;;;;4837307;29;20061;-94
2023/01/11 10:54:57;;;;;;;16.35;2.90;;;9.70;99.90;;;;;;4852999;29;20061;-93
2023/01/11 10:57:41;;;;;;;16.35;2.90;;;9.80;99.90;;;;;;4858209;29;20045;-90
2023/01/11 11:00:19;;;;;;;22.35;3.58;;;9.80;99.90;;;;;;4861172;29;20108;-91
2023/01/11 11:02:54;;;;;;;16.35;2.90;;;9.80;99.90;;;;;;4841975;29;20102;-91
2023/01/11 11:05:42;;;;;;;26.05;3.42;;;9.80;99.90;;;;;;4861644;29;20418;-89
2023/01/11 11:08:33;;;;;;;23.08;3.50;;;9.80;99.90;;;;;;4861950;29;20045;-89
2023/01/11 11:10:59;;;;;;;23.20;3.33;;;9.80;99.90;;;;;;4846092;29;20080;-91
2023/01/11 11:13:51;;;;;;;22.92;2.97;;;9.90;99.90;;;;;;4845366;29;20084;-91
2023/01/11 11:16:45;;;;;;;20.98;3.03;;;9.90;99.90;;;;;;4871038;29;20041;-91
2023/01/11 11:19:15;;;;;;;19.98;3.50;;;9.90;99.90;;;;;;4878254;29;20132;-92
2023/01/11 11:21:41;;;;;;;25.15;3.50;;;9.90;99.90;;;;;;4850082;29;20049;-93
2023/01/11 11:24:26;;;;;;;17.67;3.17;;;9.90;99.90;;;;;;4860900;29;20046;-94
2023/01/11 11:27:18;;;;;;;19.92;3.28;;;9.90;99.90;;;;;;4868925;29;20045;-93
2023/01/11 11:29:50;;;;;;;22.33;3.42;;;10.00;99.90;;;;;;4842212;29;20141;-93
2023/01/11 11:32:21;;;;;;;17.45;3.03;;;10.00;99.90;;;;;;4855979;29;20049;-95
2023/01/11 11:34:54;;;;;;;17.02;2.70;;;10.00;99.90;;;;;;4874747;29;20048;-93
2023/01/11 11:37:46;;;;;;;21.30;3.17;;;10.10;99.90;;;;;;4871762;29;20166;-96
2023/01/11 11:40:53;;;;;;;17.00;3.08;;;10.00;99.90;;;;;;4862025;29;20045;-95
2023/01/11 11:47:31;;;;;;;15.15;2.75;;;10.00;99.90;;;;;;4860242;29;20081;-95
2023/01/11 11:50:34;;;;;;;21.00;3.38;;;9.90;99.90;;;;;;4871980;23;20050;-94
2023/01/11 11:53:41;;;;;;;21.65;3.45;;;9.90;99.90;;;;;;4866631;29;20499;-93
2023/01/11 11:56:48;;;;;;;24.52;3.63;;;10.00;99.90;;;;;;4849810;29;20092;-95
2023/01/11 11:59:27;;;;;;;24.83;3.50;;;10.00;99.90;;;;;;4844782;29;20053;-93
2023/01/11 12:02:02;;;;;;;20.35;3.55;;;9.90;99.90;;;;;;4844867;29;20037;-94
2023/01/11 12:04:35;;;;;;;22.77;3.22;;;10.00;99.90;;;;;;4835962;29;20445;-95
2023/01/11 12:07:41;;;;;;;21.58;3.45;;;10.00;99.90;;;;;;4861008;29;20080;-96
2023/01/11 12:10:27;;;;;;;21.45;3.90;;;10.00;99.90;;;;;;4863639;29;20061;-94
2023/01/11 12:13:33;;;;;;;20.02;3.15;;;10.00;99.90;;;;;;4841650;29;20132;-95
2023/01/11 12:16:22;;;;;;;25.80;3.70;;;10.00;99.90;;;;;;4868063;29;20049;-93
2023/01/11 12:18:48;;;;;;;18.27;3.42;;;10.00;99.90;;;;;;4847521;29;20102;-94
2023/01/11 12:21:24;;;;;;;21.63;3.70;;;10.00;99.90;;;;;;4848664;29;20042;-94
2023/01/11 12:24:18;;;;;;;21.98;3.78;;;10.00;99.90;;;;;;4863045;29;20038;-95
2023/01/11 12:27:19;;;;;;;22.95;3.13;;;10.00;99.90;;;;;;4854002;29;20082;-94
2023/01/11 12:30:28;;;;;;;21.02;3.33;;;10.10;99.90;;;;;;4848030;29;20057;-95
2023/01/11 12:33:44;;;;;;;19.20;3.38;;;10.00;99.90;;;;;;4848243;29;20054;-96
2023/01/11 12:39:59;;;;;;;19.60;3.30;;;10.00;99.90;;;;;;4836077;29;20046;-96
2023/01/11 12:42:47;;;;;;;21.00;3.70;;;10.00;99.90;;;;;;4849674;29;20046;-94
2023/01/11 12:45:52;;;;;;;20.48;3.00;;;10.00;99.90;;;;;;4848262;29;20054;-94
2023/01/11 12:48:43;;;;;;;22.42;3.45;;;10.00;99.90;;;;;;4846250;29;20406;-95
2023/01/11 12:51:41;;;;;;;21.00;3.65;;;10.10;99.90;;;;;;4846287;29;20140;-95
2023/01/11 12:54:16;;;;;;;24.23;3.70;;;10.00;99.90;;;;;;4862152;29;20048;-95
2023/01/11 13:01:08;;;;;;;21.38;3.70;;;10.00;99.90;;;;;;4795741;29;20047;-95
2023/01/11 13:04:15;;;;;;;21.00;3.50;;;10.00;99.90;;;;;;4819130;23;20089;-94
2023/01/11 13:07:18;;;;;;;25.40;3.90;;;10.00;99.90;;;;;;4848754;29;20052;-94
2023/01/11 13:10:10;;;;;;;29.92;4.35;;;10.00;99.90;;;;;;4847690;29;20060;-95
2023/01/11 13:12:47;;;;;;;23.90;3.53;;;10.00;99.90;;;;;;4863142;29;20053;-95
2023/01/11 13:22:19;;;;;;;25.67;3.60;;;9.90;99.90;;;;;;4920430;23;20064;-95
2023/01/11 13:24:50;;;;;;;21.98;3.80;;;9.90;99.90;;;;;;4887687;29;20084;-96
2023/01/11 13:27:40;;;;;;;28.15;3.70;;;9.90;99.90;;;;;;4882394;23;20072;-96
2023/01/11 13:30:19;;;;;;;22.42;3.42;;;9.90;99.90;;;;;;4883567;29;20412;-96
2023/01/11 13:33:05;;;;;;;22.55;3.50;;;9.90;99.90;;;;;;4867644;29;20387;-95
2023/01/11 13:47:10;;;;;;;24.38;3.53;;;9.90;99.90;;;;;;4829401;29;20090;-95
2023/01/11 13:50:40;;;;;;;19.48;3.35;;;9.90;99.90;;;;;;4837121;29;20537;-96
2023/01/11 13:53:47;;;;;;;26.33;3.63;;;10.00;99.90;;;;;;4829164;29;20073;-96
2023/01/11 13:56:53;;;;;;;20.38;3.60;;;10.00;99.90;;;;;;4828360;29;20046;-96
2023/01/11 14:05:22;;;;;;;26.33;3.67;;;10.00;99.90;;;;;;4927054;23;20049;-95
2023/01/11 14:14:18;;;;;;;24.27;3.72;;;9.90;99.90;;;;;;4846649;29;20054;-96
2023/01/11 14:17:03;;;;;;;30.83;4.38;;;9.80;99.90;;;;;;4849621;29;20060;-96
2023/01/11 14:20:08;;;;;;;25.58;3.58;;;9.80;99.90;;;;;;4839817;29;20056;-94
2023/01/11 14:23:03;;;;;;;20.15;4.15;;;9.80;99.90;;;;;;4844601;29;20547;-96
2023/01/11 14:47:57;;;;;;;22.63;3.60;;;9.60;99.90;;;;;;4770748;30;20056;-95
2023/01/11 14:54:44;;;;;;;17.40;3.60;;;9.50;99.90;;;;;;4758622;30;20445;-95
2023/01/11 14:57:38;;;;;;;21.25;3.45;;;9.60;99.90;;;;;;4851285;24;20049;-96
2023/01/11 15:00:27;;;;;;;21.42;3.58;;;9.50;99.90;;;;;;4851321;29;20049;-96
2023/01/11 15:03:08;;;;;;;24.10;3.50;;;9.50;99.90;;;;;;4843000;29;20113;-96
2023/01/11 15:09:58;;;;;;;20.70;3.47;;;9.50;99.90;;;;;;4857973;29;20044;-96
2023/01/11 15:18:30;;;;;;;22.55;4.50;;;9.40;99.90;;;;;;4861727;29;20050;-95